sensor_id;sensor_type;location;lat;lon;timestamp;pressure;altitude;pressure_sealevel;temperature
34807;BMP280;18310;55.586;12.286;2023-08-07T00:02:06;99735.84;;;19.73
34807;BMP280;18310;55.586;12.286;2023-08-07T00:05:09;99744.22;;;19.69
34807;BMP280;18310;55.586;12.286;2023-08-07T00:08:12;99715.63;;;19.76
34807;BMP280;18310;55.586;12.286;2023-08-07T00:11:15;99716.94;;;19.71
34807;BMP280;18310;55.586;12.286;2023-08-07T00:14:18;99725.34;;;19.68
34807;BMP280;18310;55.586;12.286;2023-08-07T00:17:23;99703.50;;;19.73
34807;BMP280;18310;55.586;12.286;2023-08-07T00:20:26;99695.97;;;19.74
34807;BMP280;18310;55.586;12.286;2023-08-07T00:23:30;99697.28;;;19.69
34807;BMP280;18310;55.586;12.286;2023-08-07T00:26:33;99703.03;;;19.75
34807;BMP280;18310;55.586;12.286;2023-08-07T00:29:36;99693.66;;;19.72
34807;BMP280;18310;55.586;12.286;2023-08-07T00:32:41;99689.78;;;19.70
34807;BMP280;18310;55.586;12.286;2023-08-07T00:35:44;99687.69;;;19.74
34807;BMP280;18310;55.586;12.286;2023-08-07T00:38:47;99687.34;;;19.72
34807;BMP280;18310;55.586;12.286;2023-08-07T00:41:50;99705.78;;;19.75
34807;BMP280;18310;55.586;12.286;2023-08-07T00:44:54;99716.41;;;19.76
34807;BMP280;18310;55.586;12.286;2023-08-07T00:47:58;99705.91;;;19.71
34807;BMP280;18310;55.586;12.286;2023-08-07T00:51:02;99693.66;;;19.72
34807;BMP280;18310;55.586;12.286;2023-08-07T00:54:07;99677.88;;;19.73
34807;BMP280;18310;55.586;12.286;2023-08-07T00:57:12;99667.59;;;19.73
34807;BMP280;18310;55.586;12.286;2023-08-07T01:00:17;99675.97;;;19.70
34807;BMP280;18310;55.586;12.286;2023-08-07T01:03:22;99675.88;;;19.73
34807;BMP280;18310;55.586;12.286;2023-08-07T01:06:26;99671.78;;;19.65
34807;BMP280;18310;55.586;12.286;2023-08-07T01:09:29;99660.41;;;19.63
34807;BMP280;18310;55.586;12.286;2023-08-07T01:12:37;99650.25;;;19.60
34807;BMP280;18310;55.586;12.286;2023-08-07T01:15:44;99657.75;;;19.60
34807;BMP280;18310;55.586;12.286;2023-08-07T01:18:51;99672.47;;;19.57
34807;BMP280;18310;55.586;12.286;2023-08-07T01:22:05;99658.31;;;19.55
34807;BMP280;18310;55.586;12.286;2023-08-07T01:25:08;99652.78;;;19.55
34807;BMP280;18310;55.586;12.286;2023-08-07T01:28:16;99630.81;;;19.51
34807;BMP280;18310;55.586;12.286;2023-08-07T01:31:20;99628.72;;;19.42
34807;BMP280;18310;55.586;12.286;2023-08-07T01:34:25;99647.03;;;19.49
34807;BMP280;18310;55.586;12.286;2023-08-07T01:37:33;99627.59;;;19.40
34807;BMP280;18310;55.586;12.286;2023-08-07T01:40:58;99638.06;;;19.32
34807;BMP280;18310;55.586;12.286;2023-08-07T01:44:03;99634.88;;;19.34
34807;BMP280;18310;55.586;12.286;2023-08-07T01:47:06;99642.56;;;19.26
34807;BMP280;18310;55.586;12.286;2023-08-07T01:50:09;99631.47;;;19.30
34807;BMP280;18310;55.586;12.286;2023-08-07T01:53:12;99616.22;;;19.25
34807;BMP280;18310;55.586;12.286;2023-08-07T01:56:17;99631.09;;;19.28
34807;BMP280;18310;55.586;12.286;2023-08-07T01:59:20;99615.84;;;19.23
34807;BMP280;18310;55.586;12.286;2023-08-07T02:02:23;99616.53;;;19.27
34807;BMP280;18310;55.586;12.286;2023-08-07T02:05:26;99612.66;;;19.25
34807;BMP280;18310;55.586;12.286;2023-08-07T02:08:30;99628.44;;;19.24
34807;BMP280;18310;55.586;12.286;2023-08-07T02:11:34;99615.75;;;19.27
34807;BMP280;18310;55.586;12.286;2023-08-07T02:14:37;99623.34;;;19.23
34807;BMP280;18310;55.586;12.286;2023-08-07T02:17:40;99612.44;;;19.19
34807;BMP280;18310;55.586;12.286;2023-08-07T02:20:44;99605.78;;;19.04
34807;BMP280;18310;55.586;12.286;2023-08-07T02:23:48;99597.97;;;19.15
34807;BMP280;18310;55.586;12.286;2023-08-07T02:26:53;99576.00;;;19.12
34807;BMP280;18310;55.586;12.286;2023-08-07T02:29:57;99575.56;;;19.13
34807;BMP280;18310;55.586;12.286;2023-08-07T02:33:00;99577.25;;;19.11
34807;BMP280;18310;55.586;12.286;2023-08-07T02:36:03;99585.06;;;19.12
34807;BMP280;18310;55.586;12.286;2023-08-07T02:39:07;99568.97;;;19.11
34807;BMP280;18310;55.586;12.286;2023-08-07T02:42:11;99576.59;;;19.19
34807;BMP280;18310;55.586;12.286;2023-08-07T02:45:15;99565.00;;;19.24
34807;BMP280;18310;55.586;12.286;2023-08-07T02:48:18;99554.53;;;19.32
34807;BMP280;18310;55.586;12.286;2023-08-07T02:51:21;99578.94;;;19.33
34807;BMP280;18310;55.586;12.286;2023-08-07T02:54:24;99561.03;;;19.38
34807;BMP280;18310;55.586;12.286;2023-08-07T02:57:28;99550.78;;;19.38
34807;BMP280;18310;55.586;12.286;2023-08-07T03:00:31;99551.09;;;19.40
34807;BMP280;18310;55.586;12.286;2023-08-07T03:03:37;99545.59;;;19.40
34807;BMP280;18310;55.586;12.286;2023-08-07T03:06:40;99533.44;;;19.38
34807;BMP280;18310;55.586;12.286;2023-08-07T03:09:45;99534.13;;;19.42
34807;BMP280;18310;55.586;12.286;2023-08-07T03:12:49;99538.63;;;19.48
34807;BMP280;18310;55.586;12.286;2023-08-07T03:15:58;99510.16;;;19.51
34807;BMP280;18310;55.586;12.286;2023-08-07T03:19:02;99537.41;;;19.49
34807;BMP280;18310;55.586;12.286;2023-08-07T03:22:05;99553.97;;;19.49
34807;BMP280;18310;55.586;12.286;2023-08-07T03:25:09;99534.53;;;19.53
34807;BMP280;18310;55.586;12.286;2023-08-07T03:28:14;99538.53;;;19.52
34807;BMP280;18310;55.586;12.286;2023-08-07T03:31:17;99538.84;;;19.67
34807;BMP280;18310;55.586;12.286;2023-08-07T03:34:20;99539.50;;;19.58
34807;BMP280;18310;55.586;12.286;2023-08-07T03:37:24;99528.44;;;19.58
34807;BMP280;18310;55.586;12.286;2023-08-07T03:40:27;99522.63;;;19.56
34807;BMP280;18310;55.586;12.286;2023-08-07T03:43:32;99514.53;;;19.62
34807;BMP280;18310;55.586;12.286;2023-08-07T03:46:35;99493.50;;;19.55
34807;BMP280;18310;55.586;12.286;2023-08-07T03:49:38;99501.97;;;19.61
34807;BMP280;18310;55.586;12.286;2023-08-07T03:52:41;99500.31;;;19.63
34807;BMP280;18310;55.586;12.286;2023-08-07T03:55:49;99484.88;;;19.66
34807;BMP280;18310;55.586;12.286;2023-08-07T03:58:53;99480.22;;;19.63
34807;BMP280;18310;55.586;12.286;2023-08-07T04:01:56;99458.16;;;19.50
34807;BMP280;18310;55.586;12.286;2023-08-07T04:04:59;99473.69;;;19.69
34807;BMP280;18310;55.586;12.286;2023-08-07T04:08:03;99462.97;;;19.71
34807;BMP280;18310;55.586;12.286;2023-08-07T04:11:07;99463.09;;;19.68
34807;BMP280;18310;55.586;12.286;2023-08-07T04:14:12;99468.75;;;19.64
34807;BMP280;18310;55.586;12.286;2023-08-07T04:17:15;99466.41;;;19.63
34807;BMP280;18310;55.586;12.286;2023-08-07T04:20:18;99461.78;;;19.60
34807;BMP280;18310;55.586;12.286;2023-08-07T04:23:22;99463.75;;;19.59
34807;BMP280;18310;55.586;12.286;2023-08-07T04:26:25;99455.88;;;19.70
34807;BMP280;18310;55.586;12.286;2023-08-07T04:29:30;99458.38;;;19.56
34807;BMP280;18310;55.586;12.286;2023-08-07T04:32:33;99461.78;;;19.60
34807;BMP280;18310;55.586;12.286;2023-08-07T04:35:37;99449.84;;;19.63
34807;BMP280;18310;55.586;12.286;2023-08-07T04:38:40;99448.97;;;19.66
34807;BMP280;18310;55.586;12.286;2023-08-07T04:41:43;99464.31;;;19.67
34807;BMP280;18310;55.586;12.286;2023-08-07T04:45:10;99438.25;;;19.68
34807;BMP280;18310;55.586;12.286;2023-08-07T04:48:14;99429.72;;;19.75
34807;BMP280;18310;55.586;12.286;2023-08-07T04:51:17;99435.88;;;19.79
34807;BMP280;18310;55.586;12.286;2023-08-07T04:54:20;99443.16;;;19.85
34807;BMP280;18310;55.586;12.286;2023-08-07T04:57:23;99439.50;;;19.88
34807;BMP280;18310;55.586;12.286;2023-08-07T05:00:28;99447.78;;;19.88
34807;BMP280;18310;55.586;12.286;2023-08-07T05:03:31;99435.66;;;19.86
34807;BMP280;18310;55.586;12.286;2023-08-07T05:06:34;99438.41;;;19.86
34807;BMP280;18310;55.586;12.286;2023-08-07T05:09:38;99443.50;;;19.87
34807;BMP280;18310;55.586;12.286;2023-08-07T05:12:41;99433.41;;;19.93
34807;BMP280;18310;55.586;12.286;2023-08-07T05:15:46;99428.53;;;19.97
34807;BMP280;18310;55.586;12.286;2023-08-07T05:18:49;99425.00;;;19.97
34807;BMP280;18310;55.586;12.286;2023-08-07T05:21:53;99413.63;;;19.95
34807;BMP280;18310;55.586;12.286;2023-08-07T05:24:56;99443.19;;;20.07
34807;BMP280;18310;55.586;12.286;2023-08-07T05:27:59;99436.44;;;20.08
34807;BMP280;18310;55.586;12.286;2023-08-07T05:31:03;99438.31;;;20.11
34807;BMP280;18310;55.586;12.286;2023-08-07T05:34:06;99411.13;;;20.10
34807;BMP280;18310;55.586;12.286;2023-08-07T05:37:09;99404.38;;;20.11
34807;BMP280;18310;55.586;12.286;2023-08-07T05:40:13;99421.09;;;20.07
34807;BMP280;18310;55.586;12.286;2023-08-07T05:43:16;99421.09;;;20.07
34807;BMP280;18310;55.586;12.286;2023-08-07T05:46:21;99399.19;;;20.13
34807;BMP280;18310;55.586;12.286;2023-08-07T05:49:24;99408.69;;;20.12
34807;BMP280;18310;55.586;12.286;2023-08-07T05:52:51;99408.34;;;20.10
34807;BMP280;18310;55.586;12.286;2023-08-07T05:55:54;99406.94;;;20.05
34807;BMP280;18310;55.586;12.286;2023-08-07T05:58:57;99380.69;;;20.00
34807;BMP280;18310;55.586;12.286;2023-08-07T06:02:00;99407.97;;;19.98
34807;BMP280;18310;55.586;12.286;2023-08-07T06:05:05;99394.19;;;19.98
34807;BMP280;18310;55.586;12.286;2023-08-07T06:08:09;99404.22;;;19.92
34807;BMP280;18310;55.586;12.286;2023-08-07T06:11:12;99413.63;;;19.95
34807;BMP280;18310;55.586;12.286;2023-08-07T06:14:15;99397.38;;;19.97
34807;BMP280;18310;55.586;12.286;2023-08-07T06:17:19;99395.19;;;20.14
34807;BMP280;18310;55.586;12.286;2023-08-07T06:20:22;99384.53;;;20.03
34807;BMP280;18310;55.586;12.286;2023-08-07T06:23:26;99386.06;;;20.04
34807;BMP280;18310;55.586;12.286;2023-08-07T06:26:29;99380.38;;;19.98
34807;BMP280;18310;55.586;12.286;2023-08-07T06:29:32;99369.25;;;20.11
34807;BMP280;18310;55.586;12.286;2023-08-07T06:32:36;99368.47;;;20.11
34807;BMP280;18310;55.586;12.286;2023-08-07T06:35:40;99393.34;;;20.11
34807;BMP280;18310;55.586;12.286;2023-08-07T06:38:45;99378.69;;;20.23
34807;BMP280;18310;55.586;12.286;2023-08-07T06:41:48;99375.75;;;20.26
34807;BMP280;18310;55.586;12.286;2023-08-07T06:44:52;99383.47;;;20.31
34807;BMP280;18310;55.586;12.286;2023-08-07T06:47:55;99378.34;;;20.42
34807;BMP280;18310;55.586;12.286;2023-08-07T06:50:58;99369.44;;;20.47
34807;BMP280;18310;55.586;12.286;2023-08-07T06:54:03;99374.22;;;20.56
34807;BMP280;18310;55.586;12.286;2023-08-07T06:57:07;99358.59;;;20.62
34807;BMP280;18310;55.586;12.286;2023-08-07T07:00:11;99343.28;;;20.70
34807;BMP280;18310;55.586;12.286;2023-08-07T07:03:14;99368.34;;;20.76
34807;BMP280;18310;55.586;12.286;2023-08-07T07:06:17;99362.53;;;20.83
34807;BMP280;18310;55.586;12.286;2023-08-07T07:09:22;99357.03;;;20.92
34807;BMP280;18310;55.586;12.286;2023-08-07T07:12:25;99360.69;;;20.89
34807;BMP280;18310;55.586;12.286;2023-08-07T07:15:28;99347.19;;;20.91
34807;BMP280;18310;55.586;12.286;2023-08-07T07:18:31;99355.63;;;20.87
34807;BMP280;18310;55.586;12.286;2023-08-07T07:21:35;99349.31;;;20.96
34807;BMP280;18310;55.586;12.286;2023-08-07T07:24:40;99361.44;;;20.89
34807;BMP280;18310;55.586;12.286;2023-08-07T07:27:43;99373.25;;;20.81
34807;BMP280;18310;55.586;12.286;2023-08-07T07:30:46;99380.59;;;20.75
34807;BMP280;18310;55.586;12.286;2023-08-07T07:33:49;99362.19;;;20.81
34807;BMP280;18310;55.586;12.286;2023-08-07T07:36:52;99363.09;;;20.78
34807;BMP280;18310;55.586;12.286;2023-08-07T07:39:57;99359.75;;;20.83
34807;BMP280;18310;55.586;12.286;2023-08-07T07:43:21;99357.03;;;20.92
34807;BMP280;18310;55.586;12.286;2023-08-07T07:46:25;99351.19;;;20.99
34807;BMP280;18310;55.586;12.286;2023-08-07T07:49:29;99372.09;;;21.00
34807;BMP280;18310;55.586;12.286;2023-08-07T07:52:32;99369.97;;;21.04
34807;BMP280;18310;55.586;12.286;2023-08-07T07:55:35;99347.06;;;21.03
34807;BMP280;18310;55.586;12.286;2023-08-07T07:58:41;99373.16;;;21.02
34807;BMP280;18310;55.586;12.286;2023-08-07T08:01:45;99375.03;;;21.05
34807;BMP280;18310;55.586;12.286;2023-08-07T08:04:49;99375.16;;;21.02
34807;BMP280;18310;55.586;12.286;2023-08-07T08:07:53;99380.63;;;20.84
34807;BMP280;18310;55.586;12.286;2023-08-07T08:10:56;99366.22;;;20.80
34807;BMP280;18310;55.586;12.286;2023-08-07T08:14:03;99381.13;;;20.82
34807;BMP280;18310;55.586;12.286;2023-08-07T08:17:07;99381.81;;;20.74
34807;BMP280;18310;55.586;12.286;2023-08-07T08:20:10;99395.38;;;20.72
34807;BMP280;18310;55.586;12.286;2023-08-07T08:23:17;99401.03;;;20.77
34807;BMP280;18310;55.586;12.286;2023-08-07T08:26:20;99382.78;;;20.89
34807;BMP280;18310;55.586;12.286;2023-08-07T08:29:24;99394.81;;;20.95
34807;BMP280;18310;55.586;12.286;2023-08-07T08:32:29;99386.56;;;21.04
34807;BMP280;18310;55.586;12.286;2023-08-07T08:35:32;99406.69;;;21.04
34807;BMP280;18310;55.586;12.286;2023-08-07T08:38:35;99375.38;;;21.17
34807;BMP280;18310;55.586;12.286;2023-08-07T08:41:39;99412.56;;;21.34
34807;BMP280;18310;55.586;12.286;2023-08-07T08:44:45;99413.22;;;21.47
34807;BMP280;18310;55.586;12.286;2023-08-07T08:47:51;99409.34;;;21.35
34807;BMP280;18310;55.586;12.286;2023-08-07T08:50:55;99417.81;;;21.41
34807;BMP280;18310;55.586;12.286;2023-08-07T08:53:59;99434.91;;;21.48
34807;BMP280;18310;55.586;12.286;2023-08-07T08:57:04;99428.91;;;21.50
34807;BMP280;18310;55.586;12.286;2023-08-07T09:00:11;99445.34;;;21.53
34807;BMP280;18310;55.586;12.286;2023-08-07T09:03:20;99449.38;;;21.61
34807;BMP280;18310;55.586;12.286;2023-08-07T09:06:25;99446.88;;;21.54
34807;BMP280;18310;55.586;12.286;2023-08-07T09:09:31;99454.16;;;21.52
34807;BMP280;18310;55.586;12.286;2023-08-07T09:12:36;99457.06;;;21.48
34807;BMP280;18310;55.586;12.286;2023-08-07T09:15:44;99475.34;;;21.46
34807;BMP280;18310;55.586;12.286;2023-08-07T09:18:52;99464.72;;;21.53
34807;BMP280;18310;55.586;12.286;2023-08-07T09:21:57;99460.91;;;21.51
34807;BMP280;18310;55.586;12.286;2023-08-07T09:25:00;99480.22;;;21.42
34807;BMP280;18310;55.586;12.286;2023-08-07T09:28:04;99481.75;;;21.34
34807;BMP280;18310;55.586;12.286;2023-08-07T09:31:14;99460.84;;;21.24
34807;BMP280;18310;55.586;12.286;2023-08-07T09:34:21;99471.13;;;21.23
34807;BMP280;18310;55.586;12.286;2023-08-07T09:37:25;99465.94;;;21.34
34807;BMP280;18310;55.586;12.286;2023-08-07T09:40:29;99460.25;;;21.29
34807;BMP280;18310;55.586;12.286;2023-08-07T09:43:34;99469.44;;;21.17
34807;BMP280;18310;55.586;12.286;2023-08-07T09:46:42;99484.41;;;21.28
34807;BMP280;18310;55.586;12.286;2023-08-07T09:49:46;99503.41;;;21.17
34807;BMP280;18310;55.586;12.286;2023-08-07T09:52:49;99495.69;;;21.12
34807;BMP280;18310;55.586;12.286;2023-08-07T09:55:52;99497.38;;;21.18
34807;BMP280;18310;55.586;12.286;2023-08-07T09:58:55;99498.25;;;21.06
34807;BMP280;18310;55.586;12.286;2023-08-07T10:02:01;99520.56;;;21.03
34807;BMP280;18310;55.586;12.286;2023-08-07T10:05:06;99506.88;;;20.99
34807;BMP280;18310;55.586;12.286;2023-08-07T10:08:11;99511.19;;;21.00
34807;BMP280;18310;55.586;12.286;2023-08-07T10:11:15;99515.47;;;21.01
34807;BMP280;18310;55.586;12.286;2023-08-07T10:14:18;99515.47;;;21.01
34807;BMP280;18310;55.586;12.286;2023-08-07T10:17:23;99523.00;;;21.01
34807;BMP280;18310;55.586;12.286;2023-08-07T10:20:27;99529.78;;;21.00
34807;BMP280;18310;55.586;12.286;2023-08-07T10:23:34;99531.19;;;21.04
34807;BMP280;18310;55.586;12.286;2023-08-07T10:26:40;99539.63;;;21.10
34807;BMP280;18310;55.586;12.286;2023-08-07T10:29:45;99535.06;;;21.16
34807;BMP280;18310;55.586;12.286;2023-08-07T10:32:51;99539.22;;;21.21
34807;BMP280;18310;55.586;12.286;2023-08-07T10:35:57;99527.72;;;21.31
34807;BMP280;18310;55.586;12.286;2023-08-07T10:39:08;99530.81;;;21.33
34807;BMP280;18310;55.586;12.286;2023-08-07T10:42:12;99533.59;;;21.42
34807;BMP280;18310;55.586;12.286;2023-08-07T10:45:16;99527.78;;;21.49
34807;BMP280;18310;55.586;12.286;2023-08-07T10:48:21;99535.78;;;21.47
34807;BMP280;18310;55.586;12.286;2023-08-07T10:51:28;99547.31;;;21.46
34807;BMP280;18310;55.586;12.286;2023-08-07T10:54:37;99549.28;;;21.45
34807;BMP280;18310;55.586;12.286;2023-08-07T10:57:46;99549.94;;;21.49
34807;BMP280;18310;55.586;12.286;2023-08-07T11:00:50;99543.34;;;21.56
34807;BMP280;18310;55.586;12.286;2023-08-07T11:03:57;99555.38;;;21.62
34807;BMP280;18310;55.586;12.286;2023-08-07T11:07:01;99532.25;;;21.47
34807;BMP280;18310;55.586;12.286;2023-08-07T11:10:05;99571.81;;;21.65
34807;BMP280;18310;55.586;12.286;2023-08-07T11:13:08;99547.66;;;21.66
34807;BMP280;18310;55.586;12.286;2023-08-07T11:16:12;99553.72;;;21.83
34807;BMP280;18310;55.586;12.286;2023-08-07T11:19:17;99551.53;;;21.78
34807;BMP280;18310;55.586;12.286;2023-08-07T11:22:21;99544.31;;;21.89
34807;BMP280;18310;55.586;12.286;2023-08-07T11:25:26;99544.03;;;22.05
34807;BMP280;18310;55.586;12.286;2023-08-07T11:28:29;99532.81;;;22.09
34807;BMP280;18310;55.586;12.286;2023-08-07T11:31:56;99532.63;;;22.12
34807;BMP280;18310;55.586;12.286;2023-08-07T11:35:00;99522.63;;;22.24
34807;BMP280;18310;55.586;12.286;2023-08-07T11:38:05;99523.56;;;22.30
34807;BMP280;18310;55.586;12.286;2023-08-07T11:41:09;99523.09;;;22.22
34807;BMP280;18310;55.586;12.286;2023-08-07T11:44:12;99522.03;;;22.20
34807;BMP280;18310;55.586;12.286;2023-08-07T11:47:17;99542.69;;;22.19
34807;BMP280;18310;55.586;12.286;2023-08-07T11:50:20;99543.56;;;22.16
34807;BMP280;18310;55.586;12.286;2023-08-07T11:53:24;99544.66;;;22.18
34807;BMP280;18310;55.586;12.286;2023-08-07T11:56:27;99532.47;;;22.16
34807;BMP280;18310;55.586;12.286;2023-08-07T11:59:31;99532.78;;;22.27
34807;BMP280;18310;55.586;12.286;2023-08-07T12:02:36;99529.13;;;22.30
34807;BMP280;18310;55.586;12.286;2023-08-07T12:05:40;99546.97;;;22.29
34807;BMP280;18310;55.586;12.286;2023-08-07T12:08:49;99541.44;;;22.29
34807;BMP280;18310;55.586;12.286;2023-08-07T12:11:55;99512.97;;;22.19
34807;BMP280;18310;55.586;12.286;2023-08-07T12:14:59;99514.97;;;22.19
34807;BMP280;18310;55.586;12.286;2023-08-07T12:18:07;99510.47;;;22.12
34807;BMP280;18310;55.586;12.286;2023-08-07T12:21:10;99517.09;;;22.06
34807;BMP280;18310;55.586;12.286;2023-08-07T12:24:13;99526.31;;;22.12
34807;BMP280;18310;55.586;12.286;2023-08-07T12:27:17;99535.56;;;22.09
34807;BMP280;18310;55.586;12.286;2023-08-07T12:30:21;99550.38;;;22.15
34807;BMP280;18310;55.586;12.286;2023-08-07T12:33:25;99528.50;;;22.17
34807;BMP280;18310;55.586;12.286;2023-08-07T12:36:28;99530.34;;;22.20
34807;BMP280;18310;55.586;12.286;2023-08-07T12:39:31;99536.66;;;22.11
34807;BMP280;18310;55.586;12.286;2023-08-07T12:42:37;99533.88;;;22.20
34807;BMP280;18310;55.586;12.286;2023-08-07T12:45:41;99552.22;;;22.18
34807;BMP280;18310;55.586;12.286;2023-08-07T12:48:50;99534.19;;;22.22
34807;BMP280;18310;55.586;12.286;2023-08-07T12:51:54;99527.56;;;22.20
34807;BMP280;18310;55.586;12.286;2023-08-07T12:55:22;99534.81;;;22.17
34807;BMP280;18310;55.586;12.286;2023-08-07T12:58:25;99539.72;;;22.13
34807;BMP280;18310;55.586;12.286;2023-08-07T13:01:31;99544.03;;;22.14
34807;BMP280;18310;55.586;12.286;2023-08-07T13:04:34;99552.81;;;22.13
34807;BMP280;18310;55.586;12.286;2023-08-07T13:07:38;99559.13;;;22.13
34807;BMP280;18310;55.586;12.286;2023-08-07T13:10:42;99561.59;;;22.11
34807;BMP280;18310;55.586;12.286;2023-08-07T13:13:50;99556.22;;;22.08
34807;BMP280;18310;55.586;12.286;2023-08-07T13:16:53;99563.59;;;22.11
34807;BMP280;18310;55.586;12.286;2023-08-07T13:19:57;99553.75;;;22.19
34807;BMP280;18310;55.586;12.286;2023-08-07T13:23:02;99564.66;;;22.13
34807;BMP280;18310;55.586;12.286;2023-08-07T13:26:07;99563.88;;;22.13
34807;BMP280;18310;55.586;12.286;2023-08-07T13:29:11;99563.75;;;22.16
34807;BMP280;18310;55.586;12.286;2023-08-07T13:32:14;99570.50;;;22.24
34807;BMP280;18310;55.586;12.286;2023-08-07T13:35:20;99557.44;;;22.25
34807;BMP280;18310;55.586;12.286;2023-08-07T13:38:23;99576.38;;;22.26
34807;BMP280;18310;55.586;12.286;2023-08-07T13:41:27;99561.72;;;21.99
34807;BMP280;18310;55.586;12.286;2023-08-07T13:44:31;99593.28;;;22.10
34807;BMP280;18310;55.586;12.286;2023-08-07T13:47:34;99591.00;;;22.09
34807;BMP280;18310;55.586;12.286;2023-08-07T13:50:37;99593.28;;;22.10
34807;BMP280;18310;55.586;12.286;2023-08-07T13:53:42;99603.91;;;22.03
34807;BMP280;18310;55.586;12.286;2023-08-07T13:56:47;99618.69;;;22.00
34807;BMP280;18310;55.586;12.286;2023-08-07T13:59:50;99609.78;;;21.96
34807;BMP280;18310;55.586;12.286;2023-08-07T14:03:38;99609.91;;;22.01
34807;BMP280;18310;55.586;12.286;2023-08-07T14:06:41;99611.31;;;22.06
34807;BMP280;18310;55.586;12.286;2023-08-07T14:09:45;99626.88;;;22.03
34807;BMP280;18310;55.586;12.286;2023-08-07T14:12:48;99624.25;;;22.00
34807;BMP280;18310;55.586;12.286;2023-08-07T14:15:51;99627.91;;;21.97
34807;BMP280;18310;55.586;12.286;2023-08-07T14:18:55;99625.50;;;22.08
34807;BMP280;18310;55.586;12.286;2023-08-07T14:21:58;99631.06;;;22.08
34807;BMP280;18310;55.586;12.286;2023-08-07T14:25:01;99649.19;;;22.09
34807;BMP280;18310;55.586;12.286;2023-08-07T14:28:05;99639.63;;;22.10
34807;BMP280;18310;55.586;12.286;2023-08-07T14:31:09;99650.25;;;22.02
34807;BMP280;18310;55.586;12.286;2023-08-07T14:34:14;99649.34;;;22.05
34807;BMP280;18310;55.586;12.286;2023-08-07T14:37:17;99662.41;;;22.05
34807;BMP280;18310;55.586;12.286;2023-08-07T14:40:20;99661.53;;;22.08
34807;BMP280;18310;55.586;12.286;2023-08-07T14:43:23;99681.69;;;22.08
34807;BMP280;18310;55.586;12.286;2023-08-07T14:46:26;99692.28;;;22.10
34807;BMP280;18310;55.586;12.286;2023-08-07T14:49:50;99684.91;;;22.07
34807;BMP280;18310;55.586;12.286;2023-08-07T14:52:53;99695.06;;;22.10
34807;BMP280;18310;55.586;12.286;2023-08-07T14:55:56;99689.50;;;22.10
34807;BMP280;18310;55.586;12.286;2023-08-07T14:58:59;99700.47;;;22.13
34807;BMP280;18310;55.586;12.286;2023-08-07T15:02:03;99698.34;;;22.17
34807;BMP280;18310;55.586;12.286;2023-08-07T15:05:08;99712.66;;;22.25
34807;BMP280;18310;55.586;12.286;2023-08-07T15:08:11;99702.47;;;22.13
34807;BMP280;18310;55.586;12.286;2023-08-07T15:11:14;99703.22;;;22.13
34807;BMP280;18310;55.586;12.286;2023-08-07T15:14:17;99714.03;;;22.11
34807;BMP280;18310;55.586;12.286;2023-08-07T15:17:20;99707.66;;;22.02
34807;BMP280;18310;55.586;12.286;2023-08-07T15:20:25;99722.59;;;21.95
34807;BMP280;18310;55.586;12.286;2023-08-07T15:23:29;99732.00;;;21.98
34807;BMP280;18310;55.586;12.286;2023-08-07T15:26:32;99726.91;;;21.96
34807;BMP280;18310;55.586;12.286;2023-08-07T15:29:35;99730.13;;;21.95
34807;BMP280;18310;55.586;12.286;2023-08-07T15:32:42;99736.47;;;22.04
34807;BMP280;18310;55.586;12.286;2023-08-07T15:35:47;99731.69;;;21.96
34807;BMP280;18310;55.586;12.286;2023-08-07T15:38:53;99714.91;;;21.99
34807;BMP280;18310;55.586;12.286;2023-08-07T15:41:57;99722.13;;;21.97
34807;BMP280;18310;55.586;12.286;2023-08-07T15:45:01;99733.22;;;21.97
34807;BMP280;18310;55.586;12.286;2023-08-07T15:48:06;99732.94;;;22.04
34807;BMP280;18310;55.586;12.286;2023-08-07T15:51:11;99741.34;;;21.91
34807;BMP280;18310;55.586;12.286;2023-08-07T15:54:14;99742.91;;;21.92
34807;BMP280;18310;55.586;12.286;2023-08-07T15:57:17;99741.22;;;21.95
34807;BMP280;18310;55.586;12.286;2023-08-07T16:00:20;99731.19;;;21.88
34807;BMP280;18310;55.586;12.286;2023-08-07T16:03:23;99734.59;;;21.92
34807;BMP280;18310;55.586;12.286;2023-08-07T16:06:45;99732.25;;;21.91
34807;BMP280;18310;55.586;12.286;2023-08-07T16:09:49;99726.06;;;21.87
34807;BMP280;18310;55.586;12.286;2023-08-07T16:12:52;99744.22;;;21.79
34807;BMP280;18310;55.586;12.286;2023-08-07T16:15:55;99735.28;;;21.75
34807;BMP280;18310;55.586;12.286;2023-08-07T16:18:59;99742.22;;;21.79
34807;BMP280;18310;55.586;12.286;2023-08-07T16:22:04;99739.88;;;21.78
34807;BMP280;18310;55.586;12.286;2023-08-07T16:25:08;99735.28;;;21.75
34807;BMP280;18310;55.586;12.286;2023-08-07T16:28:11;99741.75;;;21.81
34807;BMP280;18310;55.586;12.286;2023-08-07T16:31:15;99727.25;;;21.77
34807;BMP280;18310;55.586;12.286;2023-08-07T16:34:18;99735.84;;;21.69
34807;BMP280;18310;55.586;12.286;2023-08-07T16:37:26;99752.94;;;21.68
34807;BMP280;18310;55.586;12.286;2023-08-07T16:40:29;99743.72;;;21.71
34807;BMP280;18310;55.586;12.286;2023-08-07T16:43:36;99724.81;;;21.79
34807;BMP280;18310;55.586;12.286;2023-08-07T16:46:40;99740.19;;;21.70
34807;BMP280;18310;55.586;12.286;2023-08-07T16:49:43;99742.63;;;21.68
34807;BMP280;18310;55.586;12.286;2023-08-07T16:52:48;99746.50;;;21.71
34807;BMP280;18310;55.586;12.286;2023-08-07T16:55:51;99750.03;;;21.71
34807;BMP280;18310;55.586;12.286;2023-08-07T16:58:55;99738.97;;;21.71
34807;BMP280;18310;55.586;12.286;2023-08-07T17:01:58;99755.56;;;21.71
34807;BMP280;18310;55.586;12.286;2023-08-07T17:05:01;99745.72;;;21.70
34807;BMP280;18310;55.586;12.286;2023-08-07T17:08:06;99742.94;;;21.70
34807;BMP280;18310;55.586;12.286;2023-08-07T17:11:09;99751.25;;;21.70
34807;BMP280;18310;55.586;12.286;2023-08-07T17:14:13;99741.38;;;21.60
34807;BMP280;18310;55.586;12.286;2023-08-07T17:17:16;99747.66;;;21.61
34807;BMP280;18310;55.586;12.286;2023-08-07T17:20:19;99733.50;;;21.59
34807;BMP280;18310;55.586;12.286;2023-08-07T17:23:23;99749.47;;;21.55
34807;BMP280;18310;55.586;12.286;2023-08-07T17:26:26;99737.31;;;21.52
34807;BMP280;18310;55.586;12.286;2023-08-07T17:29:31;99748.63;;;21.45